createdAt,value
2018-03-11T00:00:58.467Z,0.00
2018-03-11T00:01:58.433Z,0.00
2018-03-11T00:02:58.427Z,0.00
2018-03-11T00:03:58.396Z,0.00
2018-03-11T00:04:58.394Z,0.00
2018-03-11T00:05:58.394Z,0.00
2018-03-11T00:06:58.402Z,0.00
2018-03-11T00:07:58.438Z,0.00
2018-03-11T00:08:58.421Z,0.00
2018-03-11T00:09:58.413Z,0.00
2018-03-11T00:10:58.442Z,0.00
2018-03-11T00:11:58.452Z,0.00
2018-03-11T00:12:58.450Z,0.00
2018-03-11T00:13:58.440Z,0.00
2018-03-11T00:14:58.426Z,0.00
2018-03-11T00:15:58.422Z,0.00
2018-03-11T00:16:58.426Z,0.00
2018-03-11T00:17:58.442Z,0.00
2018-03-11T00:18:58.446Z,0.00
2018-03-11T00:19:58.467Z,0.00
2018-03-11T00:20:58.441Z,0.00
2018-03-11T00:21:58.485Z,0.00
2018-03-11T00:22:58.440Z,0.00
2018-03-11T00:23:59.232Z,0.00
2018-03-11T00:24:58.445Z,0.00
2018-03-11T00:25:58.454Z,0.00
2018-03-11T00:26:58.448Z,0.00
2018-03-11T00:27:58.487Z,0.00
2018-03-11T00:28:58.460Z,0.00
2018-03-11T00:29:58.460Z,0.00
2018-03-11T00:30:58.484Z,0.00
2018-03-11T00:31:58.491Z,0.00
2018-03-11T00:32:58.481Z,0.00
2018-03-11T00:33:58.478Z,0.00
2018-03-11T00:34:58.496Z,0.00
2018-03-11T00:35:58.482Z,0.00
2018-03-11T00:36:58.497Z,0.00
2018-03-11T00:37:58.500Z,0.00
2018-03-11T00:38:58.513Z,0.00
2018-03-11T00:39:58.504Z,0.00
2018-03-11T00:40:58.521Z,0.00
2018-03-11T00:41:58.627Z,0.00
2018-03-11T00:42:58.495Z,0.00
2018-03-11T00:43:58.534Z,0.00
2018-03-11T00:44:58.543Z,0.00
2018-03-11T00:45:58.501Z,0.00
2018-03-11T00:46:58.523Z,0.00
2018-03-11T00:47:58.512Z,0.00
2018-03-11T00:48:58.509Z,0.00
2018-03-11T00:49:58.509Z,0.00
2018-03-11T00:50:58.521Z,0.00
2018-03-11T00:51:58.536Z,0.00
2018-03-11T00:52:58.518Z,0.00
2018-03-11T00:53:58.537Z,0.00
2018-03-11T00:54:58.548Z,0.00
2018-03-11T00:55:58.539Z,0.00
2018-03-11T00:56:58.541Z,0.00
2018-03-11T00:57:58.549Z,0.00
2018-03-11T00:58:58.537Z,0.00
2018-03-11T00:59:58.546Z,0.00
2018-03-11T01:00:58.571Z,0.00
2018-03-11T01:01:58.560Z,0.00
2018-03-11T01:02:58.547Z,0.00
2018-03-11T01:03:58.550Z,0.00
2018-03-11T01:04:58.568Z,0.00
2018-03-11T01:05:58.573Z,0.00
2018-03-11T01:06:58.557Z,0.00
2018-03-11T01:07:58.564Z,0.00
2018-03-11T01:08:58.555Z,0.00
2018-03-11T01:09:58.569Z,0.00
2018-03-11T01:10:58.579Z,0.00
2018-03-11T01:11:58.567Z,0.00
2018-03-11T01:12:58.578Z,0.00
2018-03-11T01:13:58.592Z,0.00
2018-03-11T01:14:58.578Z,0.00
2018-03-11T01:15:58.582Z,0.00
2018-03-11T01:16:58.579Z,0.00
2018-03-11T01:17:58.598Z,0.00
2018-03-11T01:18:58.591Z,0.00
2018-03-11T01:19:58.594Z,0.00
2018-03-11T01:20:58.612Z,0.00
2018-03-11T01:21:58.599Z,0.00
2018-03-11T01:22:59.248Z,0.00
2018-03-11T01:23:58.597Z,0.00
2018-03-11T01:24:58.606Z,0.00
2018-03-11T01:25:58.607Z,0.00
2018-03-11T01:26:58.608Z,0.00
2018-03-11T01:27:58.615Z,0.00
2018-03-11T01:28:58.644Z,0.00
2018-03-11T01:29:58.630Z,0.00
2018-03-11T01:30:58.673Z,0.00
2018-03-11T01:31:58.656Z,0.00
2018-03-11T01:32:58.622Z,0.00
2018-03-11T01:33:58.625Z,0.00
2018-03-11T01:34:58.682Z,0.00
2018-03-11T01:35:58.634Z,0.00
2018-03-11T01:36:58.767Z,0.00
2018-03-11T01:37:58.629Z,0.00
2018-03-11T01:38:58.654Z,0.00
2018-03-11T01:39:58.643Z,0.00
2018-03-11T01:40:58.646Z,0.00
2018-03-11T01:41:58.664Z,0.00
2018-03-11T01:42:58.674Z,0.00
2018-03-11T01:43:58.651Z,0.00
2018-03-11T01:44:58.653Z,0.00
2018-03-11T01:45:58.656Z,0.00
2018-03-11T01:46:58.653Z,0.00
2018-03-11T01:47:58.666Z,0.00
2018-03-11T01:48:58.745Z,0.00
2018-03-11T01:49:58.667Z,0.00
2018-03-11T01:50:58.707Z,0.00
2018-03-11T01:51:58.675Z,0.00
2018-03-11T01:52:58.684Z,0.00
2018-03-11T01:53:58.705Z,0.00
2018-03-11T01:54:58.712Z,0.00
2018-03-11T01:55:58.701Z,0.00
2018-03-11T01:56:58.688Z,0.00
2018-03-11T01:57:58.704Z,0.00
2018-03-11T01:58:58.712Z,0.00
2018-03-11T01:59:58.713Z,0.00
2018-03-11T02:00:58.746Z,0.00
2018-03-11T02:01:58.704Z,0.00
2018-03-11T02:02:58.697Z,0.00
2018-03-11T02:03:58.732Z,0.00
2018-03-11T02:04:58.700Z,0.00
2018-03-11T02:05:58.709Z,0.00
2018-03-11T02:06:58.755Z,0.00
2018-03-11T02:07:58.739Z,0.00
2018-03-11T02:08:58.724Z,0.00
2018-03-11T02:09:58.715Z,0.00
2018-03-11T02:10:58.726Z,0.00
2018-03-11T02:11:58.713Z,0.00
2018-03-11T02:12:58.748Z,0.00
2018-03-11T02:13:58.743Z,0.00
2018-03-11T02:14:58.764Z,0.00
2018-03-11T02:15:58.732Z,0.00
2018-03-11T02:16:58.729Z,0.00
2018-03-11T02:17:58.731Z,0.00
2018-03-11T02:18:58.733Z,0.00
2018-03-11T02:19:58.764Z,0.00
2018-03-11T02:20:58.744Z,0.00
2018-03-11T02:21:58.744Z,0.00
2018-03-11T02:22:58.769Z,0.00
2018-03-11T02:23:58.776Z,0.00
2018-03-11T02:24:58.786Z,0.00
2018-03-11T02:25:58.770Z,0.00
2018-03-11T02:26:58.751Z,0.00
2018-03-11T02:27:58.793Z,0.00
2018-03-11T02:28:58.763Z,0.00
2018-03-11T02:29:59.271Z,0.00
2018-03-11T02:30:58.789Z,0.00
2018-03-11T02:31:58.770Z,0.00
2018-03-11T02:32:58.793Z,0.00
2018-03-11T02:33:58.805Z,0.00
2018-03-11T02:34:58.776Z,0.00
2018-03-11T02:35:58.781Z,0.00
2018-03-11T02:36:58.783Z,0.00
2018-03-11T02:37:58.809Z,0.00
2018-03-11T02:38:58.795Z,0.00
2018-03-11T02:39:58.785Z,0.00
2018-03-11T02:40:58.788Z,0.00
2018-03-11T02:41:58.792Z,0.00
2018-03-11T02:42:58.931Z,0.00
2018-03-11T02:43:58.814Z,0.00
2018-03-11T02:44:58.808Z,0.00
2018-03-11T02:45:58.802Z,0.00
2018-03-11T02:46:58.815Z,0.00
2018-03-11T02:47:58.811Z,0.00
2018-03-11T02:48:58.828Z,0.00
2018-03-11T02:49:58.839Z,0.00
2018-03-11T02:50:58.804Z,0.00
2018-03-11T02:51:58.815Z,0.00
2018-03-11T02:52:58.810Z,0.00
2018-03-11T02:53:58.813Z,0.00
2018-03-11T02:54:58.818Z,0.00
2018-03-11T02:55:58.828Z,0.00
2018-03-11T02:56:58.830Z,0.00
2018-03-11T02:57:58.851Z,0.00
2018-03-11T02:58:58.848Z,0.00
2018-03-11T02:59:58.828Z,0.00
2018-03-11T03:00:58.831Z,0.00
2018-03-11T03:01:58.833Z,0.00
2018-03-11T03:02:58.833Z,0.00
2018-03-11T03:03:58.854Z,0.00
2018-03-11T03:04:58.836Z,0.00
2018-03-11T03:05:58.838Z,0.00
2018-03-11T03:06:58.859Z,0.00
2018-03-11T03:07:58.870Z,0.00
2018-03-11T03:08:58.871Z,0.00
2018-03-11T03:09:58.854Z,0.00
2018-03-11T03:10:58.859Z,0.00
2018-03-11T03:11:58.847Z,0.00
2018-03-11T03:12:58.857Z,0.00
2018-03-11T03:13:58.864Z,0.00
2018-03-11T03:14:58.858Z,0.00
2018-03-11T03:15:58.912Z,0.00
2018-03-11T03:16:58.861Z,0.00
2018-03-11T03:17:58.866Z,0.00
2018-03-11T03:18:58.876Z,0.00
2018-03-11T03:19:58.863Z,0.00
2018-03-11T03:20:58.873Z,0.00
2018-03-11T03:21:58.870Z,0.00
2018-03-11T03:22:58.870Z,0.00
2018-03-11T03:23:58.870Z,0.00
2018-03-11T03:24:58.899Z,0.00
2018-03-11T03:25:58.878Z,0.00
2018-03-11T03:26:58.880Z,0.00
2018-03-11T03:27:58.886Z,0.00
2018-03-11T03:28:58.883Z,0.00
2018-03-11T03:29:58.885Z,0.00
2018-03-11T03:30:58.894Z,0.00
2018-03-11T03:31:58.904Z,0.00
2018-03-11T03:32:58.920Z,0.00
2018-03-11T03:33:58.897Z,0.00
2018-03-11T03:34:58.892Z,0.00
2018-03-11T03:35:58.896Z,0.00
2018-03-11T03:36:59.789Z,0.00
2018-03-11T03:37:58.913Z,0.00
2018-03-11T03:38:58.916Z,0.00
2018-03-11T03:39:58.905Z,0.00
2018-03-11T03:40:58.908Z,0.00
2018-03-11T03:41:58.924Z,0.00
2018-03-11T03:42:58.917Z,0.00
2018-03-11T03:43:58.915Z,0.00
2018-03-11T03:44:58.953Z,0.00
2018-03-11T03:45:58.916Z,0.00
2018-03-11T03:46:58.920Z,0.00
2018-03-11T03:47:58.943Z,0.00
2018-03-11T03:48:58.960Z,0.00
2018-03-11T03:49:58.957Z,0.00
2018-03-11T03:50:58.938Z,0.00
2018-03-11T03:51:58.931Z,0.00
2018-03-11T03:52:58.956Z,0.00
2018-03-11T03:53:58.970Z,0.00
2018-03-11T03:54:59.078Z,0.00
2018-03-11T03:55:58.980Z,0.00
2018-03-11T03:56:58.937Z,0.00
2018-03-11T03:57:58.946Z,0.00
2018-03-11T03:58:58.946Z,0.00
2018-03-11T03:59:58.937Z,0.00
2018-03-11T04:00:58.986Z,0.00
2018-03-11T04:01:59.003Z,0.00
2018-03-11T04:02:58.960Z,0.00
2018-03-11T04:03:58.951Z,0.00
2018-03-11T04:04:58.951Z,0.00
2018-03-11T04:05:58.953Z,0.00
2018-03-11T04:06:58.956Z,0.00
2018-03-11T04:07:59.799Z,0.00
2018-03-11T04:08:58.958Z,0.00
2018-03-11T04:09:58.960Z,0.00
2018-03-11T04:10:58.967Z,0.00
2018-03-11T04:11:58.963Z,0.00
2018-03-11T04:12:58.979Z,0.00
2018-03-11T04:13:58.985Z,0.00
2018-03-11T04:14:59.005Z,0.00
2018-03-11T04:15:59.011Z,0.00
2018-03-11T04:16:58.972Z,0.00
2018-03-11T04:17:58.979Z,0.00
2018-03-11T04:18:59.017Z,0.00
2018-03-11T04:19:58.980Z,0.00
2018-03-11T04:20:59.012Z,0.00
2018-03-11T04:21:58.985Z,0.00
2018-03-11T04:22:58.988Z,0.00
2018-03-11T04:23:58.989Z,0.00
2018-03-11T04:24:59.012Z,0.00
2018-03-11T04:25:58.985Z,0.00
2018-03-11T04:26:58.987Z,0.00
2018-03-11T04:27:58.992Z,0.00
2018-03-11T04:28:58.993Z,0.00
2018-03-11T04:29:58.990Z,0.00
2018-03-11T04:30:59.005Z,0.00
2018-03-11T04:31:59.016Z,0.00
2018-03-11T04:32:59.017Z,0.00
2018-03-11T04:33:59.095Z,0.00
2018-03-11T04:34:59.003Z,0.00
2018-03-11T04:35:59.027Z,0.00
2018-03-11T04:36:59.035Z,0.00
2018-03-11T04:37:59.013Z,0.00
2018-03-11T04:38:59.015Z,0.00
2018-03-11T04:39:59.035Z,0.00
2018-03-11T04:40:59.019Z,0.00
2018-03-11T04:41:59.016Z,0.00
2018-03-11T04:42:59.036Z,0.00
2018-03-11T04:43:59.044Z,0.00
2018-03-11T04:44:59.022Z,0.00
2018-03-11T04:45:59.057Z,0.00
2018-03-11T04:46:59.049Z,0.00
2018-03-11T04:47:59.036Z,0.00
2018-03-11T04:48:59.038Z,0.00
2018-03-11T04:49:59.039Z,0.00
2018-03-11T04:50:59.061Z,0.00
2018-03-11T04:51:59.114Z,0.00
2018-03-11T04:52:59.041Z,0.00
2018-03-11T04:53:59.032Z,0.00
2018-03-11T04:54:59.036Z,0.00
2018-03-11T04:55:59.058Z,0.00
2018-03-11T04:56:59.064Z,0.00
2018-03-11T04:57:59.069Z,0.00
2018-03-11T04:58:59.086Z,0.00
2018-03-11T04:59:59.051Z,0.00
2018-03-11T05:00:59.078Z,0.00
2018-03-11T05:01:59.813Z,0.00
2018-03-11T05:02:59.053Z,0.00
2018-03-11T05:03:59.163Z,0.00
2018-03-11T05:04:59.066Z,0.00
2018-03-11T05:05:59.054Z,0.00
2018-03-11T05:06:59.054Z,0.00
2018-03-11T05:07:59.079Z,0.00
2018-03-11T05:08:59.062Z,0.00
2018-03-11T05:09:59.122Z,0.00
2018-03-11T05:10:59.066Z,0.00
2018-03-11T05:11:59.066Z,0.00
2018-03-11T05:12:59.065Z,0.00
2018-03-11T05:13:59.070Z,0.00
2018-03-11T05:14:59.813Z,0.00
2018-03-11T05:15:59.077Z,0.00
2018-03-11T05:16:59.074Z,0.00
2018-03-11T05:17:59.081Z,0.00
2018-03-11T05:18:59.086Z,0.00
2018-03-11T05:19:59.096Z,0.00
2018-03-11T05:20:59.078Z,0.00
2018-03-11T05:21:59.102Z,0.00
2018-03-11T05:22:59.077Z,0.00
2018-03-11T05:23:59.083Z,4.00
2018-03-11T05:24:59.086Z,4.00
2018-03-11T05:25:59.087Z,0.00
2018-03-11T05:26:59.090Z,4.00
2018-03-11T05:27:59.097Z,4.00
2018-03-11T05:28:59.084Z,4.00
2018-03-11T05:29:59.131Z,8.00
2018-03-11T05:30:59.091Z,8.00
2018-03-11T05:31:59.097Z,8.00
2018-03-11T05:32:59.096Z,8.00
2018-03-11T05:33:59.105Z,12.00
2018-03-11T05:34:59.100Z,12.00
2018-03-11T05:35:59.108Z,16.00
2018-03-11T05:36:59.105Z,20.00
2018-03-11T05:37:59.115Z,20.00
2018-03-11T05:38:59.145Z,24.00
2018-03-11T05:39:59.113Z,32.00
2018-03-11T05:40:59.125Z,36.00
2018-03-11T05:41:59.110Z,44.00
2018-03-11T05:42:59.115Z,52.00
2018-03-11T05:43:59.122Z,64.00
2018-03-11T05:44:59.110Z,68.00
2018-03-11T05:45:59.830Z,72.00
2018-03-11T05:46:59.132Z,80.00
2018-03-11T05:47:59.169Z,88.00
2018-03-11T05:48:59.129Z,100.00
2018-03-11T05:49:59.123Z,108.00
2018-03-11T05:50:59.129Z,116.00
2018-03-11T05:51:59.121Z,128.00
2018-03-11T05:52:59.124Z,136.00
2018-03-11T05:53:59.126Z,144.00
2018-03-11T05:54:59.140Z,152.00
2018-03-11T05:55:59.125Z,164.00
2018-03-11T05:56:59.170Z,176.00
2018-03-11T05:57:59.171Z,196.00
2018-03-11T05:58:59.149Z,208.00
2018-03-11T05:59:59.134Z,228.00
2018-03-11T06:00:59.129Z,248.00
2018-03-11T06:01:59.170Z,272.00
2018-03-11T06:02:59.147Z,292.00
2018-03-11T06:03:59.150Z,312.00
2018-03-11T06:04:59.155Z,336.00
2018-03-11T06:05:59.147Z,360.00
2018-03-11T06:06:59.158Z,392.00
2018-03-11T06:07:59.160Z,420.00
2018-03-11T06:08:59.158Z,452.00
2018-03-11T06:09:59.151Z,484.00
2018-03-11T06:10:59.147Z,508.00
2018-03-11T06:11:59.170Z,540.00
2018-03-11T06:12:59.151Z,576.00
2018-03-11T06:13:59.163Z,608.00
2018-03-11T06:14:59.156Z,644.00
2018-03-11T06:15:59.167Z,680.00
2018-03-11T06:16:59.189Z,720.00
2018-03-11T06:17:59.168Z,764.00
2018-03-11T06:18:59.174Z,804.00
2018-03-11T06:19:59.198Z,840.00
2018-03-11T06:20:59.182Z,876.00
2018-03-11T06:21:59.184Z,912.00
2018-03-11T06:22:59.177Z,960.00
2018-03-11T06:23:59.200Z,1008.00
2018-03-11T06:24:59.168Z,1048.00
2018-03-11T06:25:59.178Z,1096.00
2018-03-11T06:26:59.169Z,1144.00
2018-03-11T06:27:59.180Z,1192.00
2018-03-11T06:28:59.175Z,1224.00
2018-03-11T06:29:59.202Z,1260.00
2018-03-11T06:30:59.191Z,1312.00
2018-03-11T06:31:59.180Z,1352.00
2018-03-11T06:32:59.192Z,1392.00
2018-03-11T06:33:59.184Z,1440.00
2018-03-11T06:34:59.186Z,1488.00
2018-03-11T06:35:59.223Z,1540.00
2018-03-11T06:36:59.190Z,1596.00
2018-03-11T06:37:59.190Z,1660.00
2018-03-11T06:38:59.198Z,1732.00
2018-03-11T06:39:59.839Z,1812.00
2018-03-11T06:40:59.241Z,1880.00
2018-03-11T06:41:59.201Z,1944.00
2018-03-11T06:42:59.192Z,2012.00
2018-03-11T06:43:59.208Z,2076.00
2018-03-11T06:44:59.229Z,2148.00
2018-03-11T06:45:59.837Z,2224.00
2018-03-11T06:46:59.250Z,2300.00
2018-03-11T06:47:59.267Z,2388.00
2018-03-11T06:48:59.206Z,2460.00
2018-03-11T06:49:59.216Z,2508.00
2018-03-11T06:50:59.215Z,2572.00
2018-03-11T06:51:59.216Z,2640.00
2018-03-11T06:52:59.224Z,2712.00
2018-03-11T06:53:59.220Z,2780.00
2018-03-11T06:54:59.214Z,2784.00
2018-03-11T06:55:59.217Z,2792.00
2018-03-11T06:56:59.260Z,2808.00
2018-03-11T06:57:59.220Z,2872.00
2018-03-11T06:58:59.262Z,2948.00
2018-03-11T06:59:59.233Z,3068.00
2018-03-11T07:00:59.221Z,3196.00
2018-03-11T07:01:59.227Z,3292.00
2018-03-11T07:02:59.265Z,3376.00
2018-03-11T07:03:59.226Z,3448.00
2018-03-11T07:04:59.272Z,3460.00
2018-03-11T07:05:59.253Z,3496.00
2018-03-11T07:06:59.233Z,3588.00
2018-03-11T07:07:59.267Z,3532.00
2018-03-11T07:08:59.243Z,3356.00
2018-03-11T07:09:59.240Z,3120.00
2018-03-11T07:10:59.287Z,2996.00
2018-03-11T07:11:59.262Z,3256.00
2018-03-11T07:12:59.253Z,3720.00
2018-03-11T07:13:59.299Z,3956.00
2018-03-11T07:14:59.259Z,4012.00
2018-03-11T07:15:59.256Z,4016.00
2018-03-11T07:16:59.261Z,4028.00
2018-03-11T07:17:59.262Z,4024.00
2018-03-11T07:18:59.280Z,3964.00
2018-03-11T07:19:59.262Z,3908.00
2018-03-11T07:20:59.265Z,3872.00
2018-03-11T07:21:59.275Z,3948.00
2018-03-11T07:22:59.266Z,4052.00
2018-03-11T07:23:59.847Z,3968.00
2018-03-11T07:24:59.278Z,3768.00
2018-03-11T07:25:59.294Z,3556.00
2018-03-11T07:26:59.274Z,3416.00
2018-03-11T07:27:59.295Z,3432.00
2018-03-11T07:28:59.291Z,3384.00
2018-03-11T07:29:59.291Z,3224.00
2018-03-11T07:30:59.286Z,3264.00
2018-03-11T07:32:01.902Z,3324.00
2018-03-11T07:32:59.317Z,3412.00
2018-03-11T07:33:59.301Z,3484.00
2018-03-11T07:34:59.311Z,3640.00
2018-03-11T07:35:59.351Z,3964.00
2018-03-11T07:36:59.295Z,4036.00
2018-03-11T07:37:59.308Z,3884.00
2018-03-11T07:38:59.336Z,3796.00
2018-03-11T07:39:59.317Z,4140.00
2018-03-11T07:40:59.339Z,4096.00
2018-03-11T07:41:59.312Z,3700.00
2018-03-11T07:42:59.352Z,4096.00
2018-03-11T07:43:59.327Z,4108.00
2018-03-11T07:44:59.337Z,4180.00
2018-03-11T07:45:59.321Z,4376.00
2018-03-11T07:46:59.336Z,4424.00
2018-03-11T07:47:59.353Z,3936.00
2018-03-11T07:48:59.368Z,3560.00
2018-03-11T07:49:59.326Z,3328.00
2018-03-11T07:50:59.392Z,3276.00
2018-03-11T07:51:59.329Z,3276.00
2018-03-11T07:52:59.333Z,3312.00
2018-03-11T07:53:59.364Z,3356.00
2018-03-11T07:54:59.346Z,3432.00
2018-03-11T07:55:59.397Z,3460.00
2018-03-11T07:56:59.358Z,3456.00
2018-03-11T07:57:59.363Z,3424.00
2018-03-11T07:58:59.355Z,3344.00
2018-03-11T07:59:59.378Z,3292.00
2018-03-11T08:00:59.356Z,3276.00
2018-03-11T08:01:59.364Z,3336.00
2018-03-11T08:02:59.364Z,3556.00
2018-03-11T08:03:59.387Z,3832.00
2018-03-11T08:04:59.365Z,4024.00
2018-03-11T08:05:59.368Z,3936.00
2018-03-11T08:06:59.377Z,3720.00
2018-03-11T08:07:59.395Z,3400.00
2018-03-11T08:08:59.416Z,3048.00
2018-03-11T08:09:59.391Z,2680.00
2018-03-11T08:10:59.387Z,2312.00
2018-03-11T08:11:59.407Z,2096.00
2018-03-11T08:12:59.400Z,2080.00
2018-03-11T08:13:59.383Z,2380.00
2018-03-11T08:14:59.394Z,2912.00
2018-03-11T08:15:59.429Z,3336.00
2018-03-11T08:16:59.418Z,3356.00
2018-03-11T08:17:59.403Z,3056.00
2018-03-11T08:18:59.393Z,2744.00
2018-03-11T08:19:59.419Z,2500.00
2018-03-11T08:20:59.434Z,2340.00
2018-03-11T08:21:59.440Z,2316.00
2018-03-11T08:22:59.404Z,2344.00
2018-03-11T08:23:59.412Z,2372.00
2018-03-11T08:24:59.418Z,2408.00
2018-03-11T08:25:59.410Z,2440.00
2018-03-11T08:26:59.416Z,2616.00
2018-03-11T08:28:00.366Z,2956.00
2018-03-11T08:28:59.432Z,3860.00
2018-03-11T08:29:59.428Z,5232.00
2018-03-11T08:30:59.435Z,6224.00
2018-03-11T08:31:59.417Z,6432.00
2018-03-11T08:32:59.425Z,6036.00
2018-03-11T08:33:59.435Z,5352.00
2018-03-11T08:34:59.459Z,5540.00
2018-03-11T08:35:59.459Z,5860.00
2018-03-11T08:36:59.450Z,5800.00
2018-03-11T08:37:59.440Z,5608.00
2018-03-11T08:38:59.447Z,5080.00
2018-03-11T08:39:59.443Z,4248.00
2018-03-11T08:40:59.448Z,3816.00
2018-03-11T08:41:59.454Z,3556.00
2018-03-11T08:42:59.442Z,3140.00
2018-03-11T08:43:59.469Z,2872.00
2018-03-11T08:44:59.449Z,2796.00
2018-03-11T08:45:59.466Z,2884.00
2018-03-11T08:46:59.522Z,3000.00
2018-03-11T08:47:59.459Z,2980.00
2018-03-11T08:48:59.471Z,2808.00
2018-03-11T08:49:59.480Z,2632.00
2018-03-11T08:50:59.480Z,2552.00
2018-03-11T08:51:59.477Z,2444.00
2018-03-11T08:52:59.473Z,2204.00
2018-03-11T08:54:00.373Z,2044.00
2018-03-11T08:54:59.476Z,1904.00
2018-03-11T08:55:59.486Z,1728.00
2018-03-11T08:56:59.498Z,1676.00
2018-03-11T08:57:59.506Z,1708.00
2018-03-11T08:58:59.503Z,1684.00
2018-03-11T08:59:59.512Z,1576.00
2018-03-11T09:00:59.490Z,1624.00
2018-03-11T09:01:59.530Z,1736.00
2018-03-11T09:02:59.503Z,1720.00
2018-03-11T09:03:59.510Z,1808.00
2018-03-11T09:04:59.571Z,1972.00
2018-03-11T09:05:59.508Z,2024.00
2018-03-11T09:06:59.545Z,2016.00
2018-03-11T09:07:59.505Z,2088.00
2018-03-11T09:08:59.525Z,2488.00
2018-03-11T09:09:59.518Z,2952.00
2018-03-11T09:10:59.547Z,3252.00
2018-03-11T09:12:00.392Z,3532.00
2018-03-11T09:12:59.525Z,3712.00
2018-03-11T09:13:59.530Z,4008.00
2018-03-11T09:14:59.554Z,4092.00
2018-03-11T09:15:59.556Z,3708.00
2018-03-11T09:16:59.538Z,3260.00
2018-03-11T09:17:59.538Z,2864.00
2018-03-11T09:18:59.541Z,2648.00
2018-03-11T09:19:59.540Z,2888.00
2018-03-11T09:20:59.582Z,3432.00
2018-03-11T09:21:59.546Z,3944.00
2018-03-11T09:22:59.553Z,4120.00
2018-03-11T09:23:59.544Z,3992.00
2018-03-11T09:24:59.579Z,3844.00
2018-03-11T09:25:59.583Z,4060.00
2018-03-11T09:26:59.601Z,4656.00
2018-03-11T09:27:59.605Z,5160.00
2018-03-11T09:28:59.596Z,5636.00
2018-03-11T09:29:59.576Z,6784.00
2018-03-11T09:30:59.569Z,20896.00
2018-03-11T09:31:59.562Z,15356.00
2018-03-11T09:32:59.567Z,14184.00
2018-03-11T09:33:59.580Z,16972.00
2018-03-11T09:35:00.388Z,12188.00
2018-03-11T09:35:59.588Z,12508.00
2018-03-11T09:36:59.610Z,12456.00
2018-03-11T09:37:59.608Z,11820.00
2018-03-11T09:38:59.600Z,13776.00
2018-03-11T09:39:59.592Z,22880.00
2018-03-11T09:40:59.618Z,17280.00
2018-03-11T09:41:59.613Z,13256.00
2018-03-11T09:42:59.599Z,11568.00
2018-03-11T09:43:59.604Z,9612.00
2018-03-11T09:44:59.634Z,8328.00
2018-03-11T09:45:59.613Z,8512.00
2018-03-11T09:46:59.621Z,8276.00
2018-03-11T09:47:59.623Z,8132.00
2018-03-11T09:48:59.628Z,7732.00
2018-03-11T09:49:59.627Z,7376.00
2018-03-11T09:50:59.629Z,6892.00
2018-03-11T09:51:59.637Z,5808.00
2018-03-11T09:52:59.643Z,4944.00
2018-03-11T09:53:59.659Z,4800.00
2018-03-11T09:54:59.678Z,5568.00
2018-03-11T09:55:59.647Z,6208.00
2018-03-11T09:56:59.701Z,5628.00
2018-03-11T09:57:59.649Z,4524.00
2018-03-11T09:58:59.664Z,3508.00
2018-03-11T09:59:59.648Z,2684.00
2018-03-11T10:00:59.657Z,2472.00
2018-03-11T10:01:59.677Z,2672.00
2018-03-11T10:02:59.673Z,2832.00
2018-03-11T10:03:59.667Z,2976.00
2018-03-11T10:04:59.674Z,3000.00
2018-03-11T10:05:59.687Z,3076.00
2018-03-11T10:06:59.687Z,3100.00
2018-03-11T10:07:59.692Z,3200.00
2018-03-11T10:08:59.696Z,3368.00
2018-03-11T10:09:59.694Z,3180.00
2018-03-11T10:10:59.690Z,2708.00
2018-03-11T10:11:59.715Z,2464.00
2018-03-11T10:12:59.693Z,2656.00
2018-03-11T10:13:59.737Z,2920.00
2018-03-11T10:14:59.699Z,2940.00
2018-03-11T10:15:59.705Z,2936.00
2018-03-11T10:16:59.708Z,2900.00
2018-03-11T10:17:59.723Z,3040.00
2018-03-11T10:18:59.767Z,3256.00
2018-03-11T10:19:59.731Z,3468.00
2018-03-11T10:20:59.775Z,3624.00
2018-03-11T10:21:59.748Z,3872.00
2018-03-11T10:22:59.730Z,5228.00
2018-03-11T10:23:59.725Z,7164.00
2018-03-11T10:24:59.731Z,7216.00
2018-03-11T10:25:59.732Z,6664.00
2018-03-11T10:26:59.778Z,5844.00
2018-03-11T10:27:59.775Z,5204.00
2018-03-11T10:28:59.751Z,4944.00
2018-03-11T10:29:59.752Z,5064.00
2018-03-11T10:30:59.749Z,5584.00
2018-03-11T10:31:59.755Z,6256.00
2018-03-11T10:32:59.751Z,6100.00
2018-03-11T10:33:59.757Z,5184.00
2018-03-11T10:34:59.754Z,5044.00
2018-03-11T10:35:59.764Z,5064.00
2018-03-11T10:36:59.775Z,4364.00
2018-03-11T10:37:59.798Z,3692.00
2018-03-11T10:38:59.775Z,9064.00
2018-03-11T10:39:59.778Z,14280.00
2018-03-11T10:40:59.795Z,15472.00
2018-03-11T10:41:59.794Z,11852.00
2018-03-11T10:42:59.788Z,13952.00
2018-03-11T10:43:59.802Z,15432.00
2018-03-11T10:44:59.799Z,19904.00
2018-03-11T10:45:59.800Z,19680.00
2018-03-11T10:46:59.824Z,11288.00
2018-03-11T10:47:59.815Z,8840.00
2018-03-11T10:48:59.817Z,7692.00
2018-03-11T10:49:59.811Z,7916.00
2018-03-11T10:50:59.928Z,7736.00
2018-03-11T10:51:59.817Z,6556.00
2018-03-11T10:52:59.834Z,5460.00
2018-03-11T10:53:59.838Z,4560.00
2018-03-11T10:54:59.851Z,4040.00
2018-03-11T10:55:59.841Z,4392.00
2018-03-11T10:56:59.838Z,5436.00
2018-03-11T10:57:59.833Z,6764.00
2018-03-11T10:58:59.842Z,8088.00
2018-03-11T10:59:59.854Z,9024.00
2018-03-11T11:00:59.855Z,10300.00
2018-03-11T11:01:59.856Z,10392.00
2018-03-11T11:02:59.868Z,11568.00
2018-03-11T11:03:59.871Z,13680.00
2018-03-11T11:04:59.867Z,25856.00
2018-03-11T11:05:59.881Z,12940.00
2018-03-11T11:06:59.939Z,11704.00
2018-03-11T11:07:59.876Z,10508.00
2018-03-11T11:08:59.887Z,9348.00
2018-03-11T11:09:59.920Z,8084.00
2018-03-11T11:10:59.883Z,7116.00
2018-03-11T11:11:59.884Z,6712.00
2018-03-11T11:12:59.925Z,7148.00
2018-03-11T11:13:59.930Z,7772.00
2018-03-11T11:14:59.889Z,8464.00
2018-03-11T11:15:59.914Z,8804.00
2018-03-11T11:16:59.907Z,9100.00
2018-03-11T11:17:59.908Z,9356.00
2018-03-11T11:18:59.914Z,9752.00
2018-03-11T11:20:00.025Z,10324.00
2018-03-11T11:20:59.931Z,9980.00
2018-03-11T11:21:59.955Z,8968.00
2018-03-11T11:22:59.928Z,7712.00
2018-03-11T11:23:59.943Z,6616.00
2018-03-11T11:24:59.940Z,5796.00
2018-03-11T11:25:59.949Z,5396.00
2018-03-11T11:26:59.944Z,5424.00
2018-03-11T11:27:59.954Z,5600.00
2018-03-11T11:28:59.951Z,5792.00
2018-03-11T11:30:00.432Z,6556.00
2018-03-11T11:30:59.963Z,7180.00
2018-03-11T11:31:59.959Z,7108.00
2018-03-11T11:32:59.967Z,7040.00
2018-03-11T11:33:59.967Z,6780.00
2018-03-11T11:34:59.984Z,6536.00
2018-03-11T11:35:59.978Z,6408.00
2018-03-11T11:37:00.002Z,6272.00
2018-03-11T11:37:59.985Z,6140.00
2018-03-11T11:39:00.006Z,5920.00
2018-03-11T11:40:00.008Z,5732.00
2018-03-11T11:40:59.994Z,5360.00
2018-03-11T11:42:00.002Z,4772.00
2018-03-11T11:43:00.010Z,4192.00
2018-03-11T11:44:00.016Z,3840.00
2018-03-11T11:45:00.011Z,3800.00
2018-03-11T11:46:00.040Z,4060.00
2018-03-11T11:47:00.073Z,4580.00
2018-03-11T11:48:00.037Z,5124.00
2018-03-11T11:49:00.041Z,5508.00
2018-03-11T11:50:00.035Z,5772.00
2018-03-11T11:51:00.090Z,6020.00
2018-03-11T11:52:00.052Z,6212.00
2018-03-11T11:53:00.072Z,6352.00
2018-03-11T11:54:00.043Z,6476.00
2018-03-11T11:55:00.051Z,6560.00
2018-03-11T11:56:00.054Z,6596.00
2018-03-11T11:57:00.054Z,6600.00
2018-03-11T11:58:00.065Z,6608.00
2018-03-11T11:59:00.064Z,6676.00
2018-03-11T12:00:00.081Z,6784.00
2018-03-11T12:01:00.945Z,6904.00
2018-03-11T12:02:00.088Z,6988.00
2018-03-11T12:03:00.079Z,7212.00
2018-03-11T12:04:00.088Z,7580.00
2018-03-11T12:05:00.094Z,7796.00
2018-03-11T12:06:00.131Z,7348.00
2018-03-11T12:07:00.109Z,6524.00
2018-03-11T12:08:00.124Z,6072.00
2018-03-11T12:09:00.119Z,6068.00
2018-03-11T12:10:00.101Z,6080.00
2018-03-11T12:11:00.946Z,5588.00
2018-03-11T12:12:00.112Z,5672.00
2018-03-11T12:13:00.147Z,6424.00
2018-03-11T12:14:00.147Z,5944.00
2018-03-11T12:15:00.131Z,4612.00
2018-03-11T12:16:00.129Z,4480.00
2018-03-11T12:17:00.132Z,3576.00
2018-03-11T12:18:00.145Z,2544.00
2018-03-11T12:19:00.157Z,1832.00
2018-03-11T12:20:00.141Z,1528.00
2018-03-11T12:21:00.187Z,1396.00
2018-03-11T12:22:00.160Z,1236.00
2018-03-11T12:23:00.178Z,1280.00
2018-03-11T12:24:00.298Z,1196.00
2018-03-11T12:25:00.160Z,888.00
2018-03-11T12:26:00.161Z,952.00
2018-03-11T12:27:00.179Z,1112.00
2018-03-11T12:28:00.173Z,1204.00
2018-03-11T12:29:00.186Z,1440.00
2018-03-11T12:30:00.187Z,1652.00
2018-03-11T12:31:00.192Z,1660.00
2018-03-11T12:32:00.191Z,1624.00
2018-03-11T12:33:00.188Z,2212.00
2018-03-11T12:34:00.192Z,2880.00
2018-03-11T12:35:00.199Z,3788.00
2018-03-11T12:36:00.199Z,4660.00
2018-03-11T12:37:00.208Z,4996.00
2018-03-11T12:38:00.217Z,4256.00